createdAt,value
2023-01-13T00:03:57.367Z,11.90
2023-01-13T00:09:04.722Z,11.70
2023-01-13T00:14:12.127Z,13.50
2023-01-13T00:19:19.677Z,15.20
2023-01-13T00:24:27.451Z,15.10
2023-01-13T00:29:34.806Z,13.10
2023-01-13T00:34:42.175Z,14.60
2023-01-13T00:39:49.673Z,14.70
2023-01-13T00:44:56.997Z,14.10
2023-01-13T00:55:11.280Z,15.20
2023-01-13T01:00:20.166Z,15.50
2023-01-13T01:05:27.520Z,16.30
2023-01-13T01:10:35.156Z,17.20
2023-01-13T01:15:45.426Z,16.20
2023-01-13T01:20:52.826Z,15.20
2023-01-13T01:26:06.128Z,16.80
2023-01-13T01:31:17.755Z,15.20
2023-01-13T01:36:28.955Z,16.70
2023-01-13T01:41:37.584Z,15.30
2023-01-13T01:46:46.152Z,14.30
2023-01-13T01:51:57.934Z,14.40
2023-01-13T01:57:06.371Z,14.00
2023-01-13T02:05:00.311Z,15.60
2023-01-13T02:10:10.634Z,16.30
2023-01-13T02:15:20.051Z,16.10
2023-01-13T02:20:53.764Z,16.70
2023-01-13T02:26:22.780Z,15.80
2023-01-13T02:31:46.555Z,17.70
2023-01-13T02:36:59.694Z,17.10
2023-01-13T02:42:29.329Z,15.80
2023-01-13T02:47:41.086Z,15.90
2023-01-13T02:52:52.316Z,17.10
2023-01-13T02:58:03.261Z,15.70
2023-01-13T03:03:10.729Z,16.80
2023-01-13T03:08:47.014Z,13.90
2023-01-13T03:14:12.149Z,15.10
2023-01-13T03:19:30.704Z,15.60
2023-01-13T03:24:41.692Z,16.20
2023-01-13T03:29:52.371Z,17.10
2023-01-13T03:35:06.631Z,17.00
2023-01-13T03:40:20.010Z,18.40
2023-01-13T03:45:27.967Z,14.80
2023-01-13T03:50:41.145Z,15.10
2023-01-13T04:01:53.132Z,15.90
2023-01-13T04:07:07.666Z,16.00
2023-01-13T04:12:14.358Z,15.10
2023-01-13T04:17:19.135Z,14.30
2023-01-13T04:22:23.643Z,17.60
2023-01-13T04:27:27.720Z,16.30
2023-01-13T04:35:53.962Z,16.40
2023-01-13T04:41:02.391Z,19.00
2023-01-13T04:46:09.935Z,17.20
2023-01-13T04:51:17.260Z,17.70
2023-01-13T05:01:30.169Z,14.50
2023-01-13T05:06:37.738Z,16.40
2023-01-13T05:12:02.994Z,17.80
2023-01-13T05:17:14.195Z,20.00
2023-01-13T05:22:39.033Z,18.20
2023-01-13T05:27:46.320Z,17.60
2023-01-13T05:32:53.731Z,16.50
2023-01-13T05:38:01.033Z,17.70
2023-01-13T05:43:21.985Z,17.90
2023-01-13T05:48:31.009Z,17.30
2023-01-13T05:53:41.023Z,16.60
2023-01-13T05:58:48.581Z,17.50
2023-01-13T06:03:56.403Z,15.10
2023-01-13T06:09:03.949Z,15.30
2023-01-13T06:14:11.651Z,12.70
2023-01-13T06:19:19.346Z,11.90
2023-01-13T06:24:26.828Z,12.90
2023-01-13T06:29:34.550Z,12.40
2023-01-13T06:34:43.145Z,9.40
2023-01-13T06:39:51.017Z,8.70
2023-01-13T06:44:58.415Z,7.00
2023-01-13T06:50:06.451Z,6.70
2023-01-13T06:55:14.794Z,6.70
2023-01-13T07:00:24.658Z,5.60
2023-01-13T07:05:32.761Z,6.20
2023-01-13T07:10:41.078Z,5.30
2023-01-13T07:15:57.980Z,4.50
2023-01-13T07:21:07.377Z,4.00
2023-01-13T07:26:15.796Z,3.90
2023-01-13T07:31:24.020Z,4.30
2023-01-13T07:36:31.218Z,4.30
2023-01-13T07:47:01.922Z,3.80
2023-01-13T07:52:09.851Z,4.10
2023-01-13T07:57:17.344Z,3.80
2023-01-13T08:02:24.593Z,4.50
2023-01-13T08:07:32.295Z,3.90
2023-01-13T08:12:57.352Z,3.90
2023-01-13T08:18:05.226Z,4.20
2023-01-13T08:23:12.454Z,4.30
2023-01-13T08:28:20.467Z,29.00
2023-01-13T08:33:29.129Z,4.20
2023-01-13T08:38:37.271Z,4.30
2023-01-13T08:43:44.998Z,3.60
2023-01-13T08:48:52.588Z,4.30
2023-01-13T08:53:59.973Z,3.80
2023-01-13T08:59:10.138Z,3.30
2023-01-13T09:04:20.795Z,2.90
2023-01-13T09:09:28.470Z,2.80
2023-01-13T09:14:39.067Z,2.70
2023-01-13T09:19:46.398Z,3.30
2023-01-13T09:24:54.392Z,2.70
2023-01-13T09:30:02.041Z,2.60
2023-01-13T09:35:11.126Z,2.90
2023-01-13T09:40:23.265Z,2.60
2023-01-13T09:45:35.415Z,2.80
2023-01-13T09:51:03.511Z,3.00
2023-01-13T09:56:15.048Z,2.50
2023-01-13T10:01:28.162Z,3.40
2023-01-13T10:06:40.252Z,2.70
2023-01-13T10:12:07.417Z,3.20
2023-01-13T10:17:27.404Z,3.80
2023-01-13T10:22:50.575Z,2.90
2023-01-13T10:38:00.519Z,3.00
2023-01-13T10:43:12.541Z,3.60
2023-01-13T10:48:20.155Z,3.80
2023-01-13T10:53:29.199Z,3.20
2023-01-13T10:58:36.512Z,3.00
2023-01-13T11:03:47.296Z,2.70
2023-01-13T11:08:58.977Z,3.00
2023-01-13T11:14:27.086Z,2.50
2023-01-13T11:19:37.994Z,2.60
2023-01-13T11:24:51.404Z,3.10
2023-01-13T11:30:10.526Z,3.10
2023-01-13T11:35:22.943Z,2.20
2023-01-13T11:40:35.772Z,3.30
2023-01-13T11:45:46.510Z,2.70
2023-01-13T11:51:01.225Z,2.20
2023-01-13T11:56:27.582Z,2.30
2023-01-13T12:02:11.711Z,1.80
2023-01-13T12:07:23.319Z,2.50
2023-01-13T12:12:47.754Z,3.20
2023-01-13T12:18:21.498Z,2.20
2023-01-13T12:23:35.952Z,2.10
2023-01-13T12:28:50.275Z,3.00
2023-01-13T12:34:21.906Z,2.90
2023-01-13T12:39:39.322Z,2.70
2023-01-13T12:45:20.874Z,3.10
2023-01-13T12:50:43.699Z,2.30
2023-01-13T12:55:54.535Z,2.90
2023-01-13T13:01:12.394Z,3.10
2023-01-13T13:06:24.528Z,2.00
2023-01-13T13:12:04.851Z,3.00
2023-01-13T13:17:44.929Z,3.70
2023-01-13T13:22:54.703Z,3.10
2023-01-13T13:28:21.319Z,2.90
2023-01-13T13:33:46.663Z,2.50
2023-01-13T13:39:23.690Z,2.90
2023-01-13T13:44:51.970Z,2.80
2023-01-13T13:50:10.413Z,2.80
2023-01-13T13:55:22.075Z,2.60
2023-01-13T14:00:32.246Z,3.20
2023-01-13T14:05:40.273Z,3.00
2023-01-13T14:10:49.172Z,3.00
2023-01-13T14:16:02.538Z,3.40
2023-01-13T14:21:21.896Z,2.90
2023-01-13T14:26:31.847Z,3.50
2023-01-13T14:31:41.707Z,3.30
2023-01-13T14:36:51.424Z,3.30
2023-01-13T14:41:58.669Z,3.00
2023-01-13T14:47:19.802Z,3.50
2023-01-13T14:52:29.318Z,4.00
2023-01-13T14:57:39.651Z,3.80
2023-01-13T15:02:48.160Z,3.70
2023-01-13T15:07:58.091Z,4.80
2023-01-13T15:13:07.394Z,4.10
2023-01-13T15:18:17.383Z,4.80
2023-01-13T15:23:25.109Z,5.00
2023-01-13T15:28:33.231Z,4.80
2023-01-13T15:33:41.925Z,5.00
2023-01-13T15:38:49.032Z,4.40
2023-01-13T15:44:14.140Z,4.30
2023-01-13T15:49:28.260Z,4.90
2023-01-13T15:54:35.855Z,4.30
2023-01-13T15:59:43.253Z,4.00
2023-01-13T16:04:54.322Z,4.20
2023-01-13T16:10:03.684Z,4.90
2023-01-13T16:15:13.925Z,4.60
2023-01-13T16:20:21.652Z,4.30
2023-01-13T16:25:29.801Z,4.60
2023-01-13T16:30:38.514Z,4.60
2023-01-13T16:36:12.888Z,5.10
2023-01-13T16:41:13.483Z,5.00
2023-01-13T16:46:26.913Z,5.60
2023-01-13T16:51:34.585Z,4.60
2023-01-13T17:02:25.345Z,5.00
2023-01-13T17:07:33.525Z,5.70
2023-01-13T17:12:40.821Z,5.30
2023-01-13T17:17:52.206Z,4.20
2023-01-13T17:22:59.346Z,5.20
2023-01-13T17:28:07.435Z,5.50
2023-01-13T17:33:15.355Z,5.40
2023-01-13T17:38:22.886Z,5.90
2023-01-13T17:43:31.108Z,5.90
2023-01-13T17:48:38.400Z,5.40
2023-01-13T17:53:45.793Z,6.30
2023-01-13T17:58:54.400Z,5.70
2023-01-13T18:04:01.837Z,6.00
2023-01-13T18:09:09.040Z,6.70
2023-01-13T18:14:16.573Z,6.40
2023-01-13T18:19:41.980Z,6.20
2023-01-13T18:25:06.760Z,5.70
2023-01-13T18:30:15.794Z,34.00
2023-01-13T18:35:23.653Z,4.60
2023-01-13T18:40:31.166Z,6.40
2023-01-13T18:45:38.868Z,6.30
2023-01-13T18:50:46.756Z,6.70
2023-01-13T18:55:54.072Z,6.70
2023-01-13T19:01:06.022Z,6.20
2023-01-13T19:06:13.551Z,6.40
2023-01-13T19:11:20.825Z,6.40
2023-01-13T19:16:28.137Z,6.60
2023-01-13T19:21:35.339Z,7.00
2023-01-13T19:26:43.356Z,7.40
2023-01-13T19:31:50.757Z,6.10
2023-01-13T19:36:59.417Z,26.90
2023-01-13T19:42:25.293Z,5.10
2023-01-13T19:47:32.642Z,6.50
2023-01-13T19:52:39.916Z,7.00
2023-01-13T19:57:47.170Z,6.30
2023-01-13T20:02:56.979Z,6.20
2023-01-13T20:08:04.389Z,6.80
2023-01-13T20:13:11.518Z,7.00
2023-01-13T20:18:19.252Z,7.00
2023-01-13T20:23:27.550Z,7.20
2023-01-13T20:28:37.634Z,7.10
2023-01-13T20:33:50.129Z,7.60
2023-01-13T20:39:00.908Z,7.60
2023-01-13T20:44:11.649Z,5.70
2023-01-13T20:49:18.938Z,6.30
2023-01-13T20:54:28.027Z,6.90
2023-01-13T20:59:35.506Z,6.80
2023-01-13T21:04:43.244Z,6.70
2023-01-13T21:09:50.919Z,6.10
2023-01-13T21:15:15.975Z,5.60
2023-01-13T21:20:23.397Z,5.70
2023-01-13T21:25:31.288Z,7.20
2023-01-13T21:30:39.892Z,6.90
2023-01-13T21:35:47.653Z,6.10
2023-01-13T21:41:05.898Z,7.00
2023-01-13T21:46:30.088Z,7.10
2023-01-13T21:51:38.838Z,7.70
2023-01-13T21:56:46.036Z,8.70
2023-01-13T22:02:24.053Z,8.20
2023-01-13T22:07:20.680Z,8.30
2023-01-13T22:17:35.134Z,6.60
2023-01-13T22:22:42.649Z,7.00
2023-01-13T22:27:50.442Z,5.60
2023-01-13T22:32:58.172Z,6.10
2023-01-13T22:38:05.419Z,5.70
2023-01-13T22:43:12.555Z,6.40
2023-01-13T22:53:28.357Z,5.30
2023-01-13T23:03:59.569Z,4.30
2023-01-13T23:09:07.688Z,5.60
2023-01-13T23:14:15.574Z,5.60
2023-01-13T23:19:23.413Z,4.40
2023-01-13T23:24:31.519Z,5.00
2023-01-13T23:29:39.053Z,6.10
2023-01-13T23:34:46.165Z,6.80
2023-01-13T23:44:59.387Z,6.90
2023-01-13T23:50:07.416Z,6.70
2023-01-13T23:55:14.646Z,6.70
